sensor_id;sensor_type;location;lat;lon;timestamp;P1;durP1;ratioP1;P2;durP2;ratioP2
60241;SDS011;46103;52.076;113.488;2022-11-20T00:01:34;8.10;;;3.75;;
60241;SDS011;46103;52.076;113.488;2022-11-20T00:04:38;18.13;;;6.05;;
60241;SDS011;46103;52.076;113.488;2022-11-20T00:07:42;13.15;;;4.88;;
60241;SDS011;46103;52.076;113.488;2022-11-20T00:10:46;27.52;;;5.40;;
60241;SDS011;46103;52.076;113.488;2022-11-20T00:13:50;12.68;;;5.88;;
60241;SDS011;46103;52.076;113.488;2022-11-20T00:16:56;17.25;;;5.68;;
60241;SDS011;46103;52.076;113.488;2022-11-20T00:20:00;14.20;;;6.60;;
60241;SDS011;46103;52.076;113.488;2022-11-20T00:23:03;18.17;;;6.18;;
60241;SDS011;46103;52.076;113.488;2022-11-20T00:26:12;11.25;;;6.45;;
60241;SDS011;46103;52.076;113.488;2022-11-20T00:29:18;12.93;;;5.38;;
60241;SDS011;46103;52.076;113.488;2022-11-20T00:32:22;13.50;;;7.35;;
60241;SDS011;46103;52.076;113.488;2022-11-20T00:35:26;14.82;;;6.25;;
60241;SDS011;46103;52.076;113.488;2022-11-20T00:38:30;23.45;;;8.38;;
60241;SDS011;46103;52.076;113.488;2022-11-20T00:41:35;24.05;;;9.07;;
60241;SDS011;46103;52.076;113.488;2022-11-20T00:44:38;14.45;;;8.40;;
60241;SDS011;46103;52.076;113.488;2022-11-20T00:47:42;25.40;;;8.82;;
60241;SDS011;46103;52.076;113.488;2022-11-20T00:50:45;22.90;;;8.73;;
60241;SDS011;46103;52.076;113.488;2022-11-20T00:53:54;17.05;;;8.43;;
60241;SDS011;46103;52.076;113.488;2022-11-20T00:56:59;16.75;;;8.32;;
60241;SDS011;46103;52.076;113.488;2022-11-20T01:00:03;16.27;;;6.63;;
60241;SDS011;46103;52.076;113.488;2022-11-20T01:03:06;26.35;;;11.65;;
60241;SDS011;46103;52.076;113.488;2022-11-20T01:06:15;20.92;;;7.93;;
60241;SDS011;46103;52.076;113.488;2022-11-20T01:09:23;20.85;;;9.13;;
60241;SDS011;46103;52.076;113.488;2022-11-20T01:12:27;8.50;;;5.53;;
60241;SDS011;46103;52.076;113.488;2022-11-20T01:15:33;25.33;;;11.38;;
60241;SDS011;46103;52.076;113.488;2022-11-20T01:18:37;24.33;;;10.52;;
60241;SDS011;46103;52.076;113.488;2022-11-20T01:21:43;14.77;;;7.40;;
60241;SDS011;46103;52.076;113.488;2022-11-20T01:24:49;18.60;;;7.88;;
60241;SDS011;46103;52.076;113.488;2022-11-20T01:27:52;19.33;;;8.20;;
60241;SDS011;46103;52.076;113.488;2022-11-20T01:30:56;21.77;;;10.15;;
60241;SDS011;46103;52.076;113.488;2022-11-20T01:34:01;24.45;;;10.40;;
60241;SDS011;46103;52.076;113.488;2022-11-20T01:37:09;29.73;;;12.77;;
60241;SDS011;46103;52.076;113.488;2022-11-20T01:40:12;32.03;;;14.02;;
60241;SDS011;46103;52.076;113.488;2022-11-20T01:43:17;39.20;;;15.38;;
60241;SDS011;46103;52.076;113.488;2022-11-20T01:52:42;49.47;;;23.08;;
60241;SDS011;46103;52.076;113.488;2022-11-20T01:55:50;70.80;;;28.50;;
60241;SDS011;46103;52.076;113.488;2022-11-20T01:58:56;66.38;;;24.80;;
60241;SDS011;46103;52.076;113.488;2022-11-20T02:02:04;79.85;;;27.65;;
60241;SDS011;46103;52.076;113.488;2022-11-20T02:08:33;147.18;;;42.92;;
60241;SDS011;46103;52.076;113.488;2022-11-20T02:11:37;131.40;;;44.00;;
60241;SDS011;46103;52.076;113.488;2022-11-20T02:14:41;157.15;;;50.67;;
60241;SDS011;46103;52.076;113.488;2022-11-20T02:17:45;196.60;;;65.40;;
60241;SDS011;46103;52.076;113.488;2022-11-20T02:20:50;250.98;;;84.07;;
60241;SDS011;46103;52.076;113.488;2022-11-20T02:24:02;245.45;;;89.65;;
60241;SDS011;46103;52.076;113.488;2022-11-20T02:27:15;235.05;;;80.18;;
60241;SDS011;46103;52.076;113.488;2022-11-20T02:30:19;227.88;;;79.07;;
60241;SDS011;46103;52.076;113.488;2022-11-20T02:33:23;265.45;;;88.35;;
60241;SDS011;46103;52.076;113.488;2022-11-20T02:36:27;217.48;;;68.55;;
60241;SDS011;46103;52.076;113.488;2022-11-20T02:39:34;186.23;;;59.40;;
60241;SDS011;46103;52.076;113.488;2022-11-20T02:42:37;89.07;;;32.28;;
60241;SDS011;46103;52.076;113.488;2022-11-20T02:45:41;79.50;;;28.73;;
60241;SDS011;46103;52.076;113.488;2022-11-20T02:48:44;62.88;;;24.98;;
60241;SDS011;46103;52.076;113.488;2022-11-20T02:51:49;59.28;;;24.45;;
60241;SDS011;46103;52.076;113.488;2022-11-20T02:54:52;75.57;;;27.90;;
60241;SDS011;46103;52.076;113.488;2022-11-20T02:57:56;68.47;;;25.65;;
60241;SDS011;46103;52.076;113.488;2022-11-20T03:01:00;96.25;;;31.88;;
60241;SDS011;46103;52.076;113.488;2022-11-20T03:04:07;44.93;;;14.83;;
60241;SDS011;46103;52.076;113.488;2022-11-20T03:07:10;32.40;;;13.80;;
60241;SDS011;46103;52.076;113.488;2022-11-20T03:10:15;61.78;;;23.75;;
60241;SDS011;46103;52.076;113.488;2022-11-20T03:13:19;62.08;;;20.02;;
60241;SDS011;46103;52.076;113.488;2022-11-20T03:16:23;47.25;;;17.50;;
60241;SDS011;46103;52.076;113.488;2022-11-20T03:19:27;43.72;;;18.33;;
60241;SDS011;46103;52.076;113.488;2022-11-20T03:22:31;38.45;;;14.20;;
60241;SDS011;46103;52.076;113.488;2022-11-20T03:25:34;36.33;;;13.07;;
60241;SDS011;46103;52.076;113.488;2022-11-20T03:28:38;33.15;;;12.00;;
60241;SDS011;46103;52.076;113.488;2022-11-20T03:31:42;43.63;;;13.95;;
60241;SDS011;46103;52.076;113.488;2022-11-20T03:34:46;21.73;;;9.20;;
60241;SDS011;46103;52.076;113.488;2022-11-20T03:37:50;24.67;;;9.25;;
60241;SDS011;46103;52.076;113.488;2022-11-20T03:40:57;33.15;;;11.63;;
60241;SDS011;46103;52.076;113.488;2022-11-20T03:44:03;38.85;;;14.10;;
60241;SDS011;46103;52.076;113.488;2022-11-20T03:47:08;55.10;;;16.95;;
60241;SDS011;46103;52.076;113.488;2022-11-20T03:50:12;65.50;;;23.80;;
60241;SDS011;46103;52.076;113.488;2022-11-20T03:53:17;41.33;;;17.63;;
60241;SDS011;46103;52.076;113.488;2022-11-20T03:56:25;31.05;;;12.18;;
60241;SDS011;46103;52.076;113.488;2022-11-20T03:59:30;35.72;;;12.57;;
60241;SDS011;46103;52.076;113.488;2022-11-20T04:02:34;26.52;;;9.98;;
60241;SDS011;46103;52.076;113.488;2022-11-20T04:05:39;29.67;;;10.65;;
60241;SDS011;46103;52.076;113.488;2022-11-20T04:08:43;37.22;;;13.13;;
60241;SDS011;46103;52.076;113.488;2022-11-20T04:11:54;40.55;;;13.80;;
60241;SDS011;46103;52.076;113.488;2022-11-20T04:14:58;35.40;;;12.35;;
60241;SDS011;46103;52.076;113.488;2022-11-20T04:18:02;37.17;;;13.07;;
60241;SDS011;46103;52.076;113.488;2022-11-20T04:21:06;30.27;;;13.02;;
60241;SDS011;46103;52.076;113.488;2022-11-20T04:24:11;32.67;;;11.85;;
60241;SDS011;46103;52.076;113.488;2022-11-20T04:27:14;31.88;;;12.98;;
60241;SDS011;46103;52.076;113.488;2022-11-20T04:30:18;34.03;;;12.73;;
60241;SDS011;46103;52.076;113.488;2022-11-20T04:33:22;28.17;;;10.50;;
60241;SDS011;46103;52.076;113.488;2022-11-20T04:36:29;31.67;;;10.80;;
60241;SDS011;46103;52.076;113.488;2022-11-20T04:39:33;38.88;;;11.05;;
60241;SDS011;46103;52.076;113.488;2022-11-20T04:42:37;34.50;;;13.32;;
60241;SDS011;46103;52.076;113.488;2022-11-20T04:45:41;34.17;;;12.88;;
60241;SDS011;46103;52.076;113.488;2022-11-20T04:48:45;21.35;;;8.07;;
60241;SDS011;46103;52.076;113.488;2022-11-20T04:51:54;41.50;;;14.43;;
60241;SDS011;46103;52.076;113.488;2022-11-20T04:54:58;41.55;;;14.00;;
60241;SDS011;46103;52.076;113.488;2022-11-20T04:58:01;36.03;;;13.20;;
60241;SDS011;46103;52.076;113.488;2022-11-20T05:01:07;42.33;;;13.45;;
60241;SDS011;46103;52.076;113.488;2022-11-20T05:04:13;31.20;;;11.18;;
60241;SDS011;46103;52.076;113.488;2022-11-20T05:07:17;30.90;;;12.68;;
60241;SDS011;46103;52.076;113.488;2022-11-20T05:10:20;45.30;;;14.38;;
60241;SDS011;46103;52.076;113.488;2022-11-20T05:13:24;40.35;;;13.43;;
60241;SDS011;46103;52.076;113.488;2022-11-20T05:16:28;40.25;;;15.10;;
60241;SDS011;46103;52.076;113.488;2022-11-20T05:19:32;33.95;;;11.23;;
60241;SDS011;46103;52.076;113.488;2022-11-20T05:22:38;27.88;;;10.48;;
60241;SDS011;46103;52.076;113.488;2022-11-20T05:25:44;31.52;;;9.70;;
60241;SDS011;46103;52.076;113.488;2022-11-20T05:28:57;24.63;;;10.50;;
60241;SDS011;46103;52.076;113.488;2022-11-20T05:32:04;30.67;;;9.48;;
60241;SDS011;46103;52.076;113.488;2022-11-20T05:35:09;30.95;;;10.55;;
60241;SDS011;46103;52.076;113.488;2022-11-20T05:38:13;25.20;;;9.32;;
60241;SDS011;46103;52.076;113.488;2022-11-20T05:41:18;21.42;;;7.00;;
60241;SDS011;46103;52.076;113.488;2022-11-20T05:44:22;22.08;;;8.05;;
60241;SDS011;46103;52.076;113.488;2022-11-20T05:47:26;20.35;;;7.35;;
60241;SDS011;46103;52.076;113.488;2022-11-20T05:50:33;18.35;;;7.13;;
60241;SDS011;46103;52.076;113.488;2022-11-20T05:53:37;16.42;;;6.20;;
60241;SDS011;46103;52.076;113.488;2022-11-20T05:56:49;22.20;;;8.02;;
60241;SDS011;46103;52.076;113.488;2022-11-20T05:59:52;20.20;;;7.68;;
60241;SDS011;46103;52.076;113.488;2022-11-20T06:02:56;20.60;;;7.57;;
60241;SDS011;46103;52.076;113.488;2022-11-20T06:06:00;20.63;;;8.55;;
60241;SDS011;46103;52.076;113.488;2022-11-20T06:09:04;16.10;;;6.95;;
60241;SDS011;46103;52.076;113.488;2022-11-20T06:12:08;18.33;;;7.55;;
60241;SDS011;46103;52.076;113.488;2022-11-20T06:15:12;21.95;;;8.77;;
60241;SDS011;46103;52.076;113.488;2022-11-20T06:18:15;16.95;;;7.72;;
60241;SDS011;46103;52.076;113.488;2022-11-20T06:21:20;20.45;;;8.00;;
60241;SDS011;46103;52.076;113.488;2022-11-20T06:24:25;23.38;;;8.50;;
60241;SDS011;46103;52.076;113.488;2022-11-20T06:27:28;21.80;;;8.50;;
60241;SDS011;46103;52.076;113.488;2022-11-20T06:30:32;19.70;;;7.38;;
60241;SDS011;46103;52.076;113.488;2022-11-20T06:33:36;11.27;;;5.03;;
60241;SDS011;46103;52.076;113.488;2022-11-20T06:36:39;13.70;;;5.80;;
60241;SDS011;46103;52.076;113.488;2022-11-20T06:39:44;10.35;;;5.57;;
60241;SDS011;46103;52.076;113.488;2022-11-20T06:42:47;13.50;;;5.55;;
60241;SDS011;46103;52.076;113.488;2022-11-20T06:45:54;7.68;;;3.70;;
60241;SDS011;46103;52.076;113.488;2022-11-20T06:48:59;11.15;;;4.32;;
60241;SDS011;46103;52.076;113.488;2022-11-20T06:52:04;13.77;;;4.80;;
60241;SDS011;46103;52.076;113.488;2022-11-20T06:55:07;12.00;;;5.30;;
60241;SDS011;46103;52.076;113.488;2022-11-20T06:58:14;14.18;;;5.05;;
60241;SDS011;46103;52.076;113.488;2022-11-20T07:01:18;13.18;;;4.82;;
60241;SDS011;46103;52.076;113.488;2022-11-20T07:04:21;13.00;;;5.50;;
60241;SDS011;46103;52.076;113.488;2022-11-20T07:07:24;21.27;;;6.30;;
60241;SDS011;46103;52.076;113.488;2022-11-20T07:10:28;11.88;;;4.93;;
60241;SDS011;46103;52.076;113.488;2022-11-20T07:13:32;17.02;;;6.72;;
60241;SDS011;46103;52.076;113.488;2022-11-20T07:16:36;18.90;;;7.93;;
60241;SDS011;46103;52.076;113.488;2022-11-20T07:19:39;21.75;;;8.38;;
60241;SDS011;46103;52.076;113.488;2022-11-20T07:22:42;18.67;;;6.32;;
60241;SDS011;46103;52.076;113.488;2022-11-20T07:25:46;19.02;;;5.75;;
60241;SDS011;46103;52.076;113.488;2022-11-20T07:28:49;20.42;;;5.70;;
60241;SDS011;46103;52.076;113.488;2022-11-20T07:31:53;13.80;;;5.55;;
60241;SDS011;46103;52.076;113.488;2022-11-20T07:34:58;14.60;;;5.72;;
60241;SDS011;46103;52.076;113.488;2022-11-20T07:38:01;16.85;;;6.30;;
60241;SDS011;46103;52.076;113.488;2022-11-20T07:41:05;15.40;;;6.85;;
60241;SDS011;46103;52.076;113.488;2022-11-20T07:44:09;23.63;;;7.00;;
60241;SDS011;46103;52.076;113.488;2022-11-20T07:47:13;17.33;;;7.00;;
60241;SDS011;46103;52.076;113.488;2022-11-20T07:50:16;15.32;;;6.70;;
60241;SDS011;46103;52.076;113.488;2022-11-20T07:53:23;21.33;;;7.38;;
60241;SDS011;46103;52.076;113.488;2022-11-20T07:56:27;22.02;;;7.13;;
60241;SDS011;46103;52.076;113.488;2022-11-20T07:59:30;18.52;;;7.65;;
60241;SDS011;46103;52.076;113.488;2022-11-20T08:02:36;19.08;;;7.50;;
60241;SDS011;46103;52.076;113.488;2022-11-20T08:05:44;24.50;;;8.07;;
60241;SDS011;46103;52.076;113.488;2022-11-20T08:08:48;15.48;;;7.63;;
60241;SDS011;46103;52.076;113.488;2022-11-20T08:11:51;14.38;;;6.95;;
60241;SDS011;46103;52.076;113.488;2022-11-20T08:15:13;17.55;;;6.07;;
60241;SDS011;46103;52.076;113.488;2022-11-20T08:18:17;16.45;;;6.43;;
60241;SDS011;46103;52.076;113.488;2022-11-20T08:21:36;16.02;;;6.85;;
60241;SDS011;46103;52.076;113.488;2022-11-20T08:24:40;23.25;;;7.90;;
60241;SDS011;46103;52.076;113.488;2022-11-20T08:27:44;24.00;;;7.60;;
60241;SDS011;46103;52.076;113.488;2022-11-20T08:30:48;16.63;;;6.65;;
60241;SDS011;46103;52.076;113.488;2022-11-20T08:33:53;11.65;;;5.82;;
60241;SDS011;46103;52.076;113.488;2022-11-20T08:36:57;20.13;;;6.25;;
60241;SDS011;46103;52.076;113.488;2022-11-20T08:40:02;17.85;;;6.68;;
60241;SDS011;46103;52.076;113.488;2022-11-20T08:43:05;15.10;;;6.20;;
60241;SDS011;46103;52.076;113.488;2022-11-20T08:46:09;18.90;;;6.95;;
60241;SDS011;46103;52.076;113.488;2022-11-20T08:49:16;20.20;;;5.65;;
60241;SDS011;46103;52.076;113.488;2022-11-20T08:52:21;10.70;;;4.85;;
60241;SDS011;46103;52.076;113.488;2022-11-20T08:55:26;11.30;;;4.93;;
60241;SDS011;46103;52.076;113.488;2022-11-20T08:58:29;18.25;;;5.28;;
60241;SDS011;46103;52.076;113.488;2022-11-20T09:01:52;15.95;;;5.60;;
60241;SDS011;46103;52.076;113.488;2022-11-20T09:04:56;11.05;;;5.57;;
60241;SDS011;46103;52.076;113.488;2022-11-20T09:08:00;10.95;;;4.15;;
60241;SDS011;46103;52.076;113.488;2022-11-20T09:11:04;18.95;;;5.30;;
60241;SDS011;46103;52.076;113.488;2022-11-20T09:14:08;11.57;;;4.53;;
60241;SDS011;46103;52.076;113.488;2022-11-20T09:17:12;19.25;;;6.32;;
60241;SDS011;46103;52.076;113.488;2022-11-20T09:20:17;14.00;;;6.03;;
60241;SDS011;46103;52.076;113.488;2022-11-20T09:23:22;15.57;;;5.25;;
60241;SDS011;46103;52.076;113.488;2022-11-20T09:26:27;29.30;;;7.90;;
60241;SDS011;46103;52.076;113.488;2022-11-20T09:29:36;33.88;;;12.02;;
60241;SDS011;46103;52.076;113.488;2022-11-20T09:32:42;42.28;;;14.25;;
60241;SDS011;46103;52.076;113.488;2022-11-20T09:35:46;64.32;;;22.90;;
60241;SDS011;46103;52.076;113.488;2022-11-20T09:38:53;62.78;;;20.98;;
60241;SDS011;46103;52.076;113.488;2022-11-20T09:42:18;46.22;;;18.17;;
60241;SDS011;46103;52.076;113.488;2022-11-20T09:49:24;24.60;;;8.65;;
60241;SDS011;46103;52.076;113.488;2022-11-20T09:55:50;27.48;;;11.55;;
60241;SDS011;46103;52.076;113.488;2022-11-20T09:58:54;32.80;;;12.52;;
60241;SDS011;46103;52.076;113.488;2022-11-20T10:02:01;26.08;;;10.30;;
60241;SDS011;46103;52.076;113.488;2022-11-20T10:08:44;30.60;;;11.35;;
60241;SDS011;46103;52.076;113.488;2022-11-20T10:15:53;41.08;;;17.10;;
60241;SDS011;46103;52.076;113.488;2022-11-20T10:32:21;44.85;;;14.35;;
60241;SDS011;46103;52.076;113.488;2022-11-20T10:38:43;44.03;;;18.15;;
60241;SDS011;46103;52.076;113.488;2022-11-20T10:42:15;82.15;;;28.17;;
60241;SDS011;46103;52.076;113.488;2022-11-20T10:45:38;81.97;;;27.20;;
60241;SDS011;46103;52.076;113.488;2022-11-20T10:48:43;57.80;;;22.35;;
60241;SDS011;46103;52.076;113.488;2022-11-20T11:02:20;131.30;;;44.58;;
60241;SDS011;46103;52.076;113.488;2022-11-20T11:05:41;131.90;;;45.78;;
60241;SDS011;46103;52.076;113.488;2022-11-20T11:09:13;85.50;;;28.33;;
60241;SDS011;46103;52.076;113.488;2022-11-20T11:12:25;32.40;;;15.02;;
60241;SDS011;46103;52.076;113.488;2022-11-20T11:15:38;10.63;;;5.82;;
60241;SDS011;46103;52.076;113.488;2022-11-20T11:18:42;19.45;;;8.57;;
60241;SDS011;46103;52.076;113.488;2022-11-20T11:21:53;47.40;;;16.60;;
60241;SDS011;46103;52.076;113.488;2022-11-20T11:24:58;69.35;;;23.15;;
60241;SDS011;46103;52.076;113.488;2022-11-20T11:28:03;58.03;;;21.20;;
60241;SDS011;46103;52.076;113.488;2022-11-20T11:31:27;77.38;;;26.35;;
60241;SDS011;46103;52.076;113.488;2022-11-20T11:34:32;67.35;;;27.02;;
60241;SDS011;46103;52.076;113.488;2022-11-20T11:37:37;81.70;;;28.88;;
60241;SDS011;46103;52.076;113.488;2022-11-20T11:40:43;73.40;;;25.42;;
60241;SDS011;46103;52.076;113.488;2022-11-20T11:43:53;88.63;;;28.20;;
60241;SDS011;46103;52.076;113.488;2022-11-20T11:47:25;64.63;;;25.73;;
60241;SDS011;46103;52.076;113.488;2022-11-20T11:50:33;76.75;;;27.02;;
60241;SDS011;46103;52.076;113.488;2022-11-20T11:53:38;80.20;;;26.80;;
60241;SDS011;46103;52.076;113.488;2022-11-20T11:56:45;81.07;;;26.42;;
60241;SDS011;46103;52.076;113.488;2022-11-20T12:06:27;78.80;;;26.77;;
60241;SDS011;46103;52.076;113.488;2022-11-20T12:09:34;60.95;;;23.40;;
60241;SDS011;46103;52.076;113.488;2022-11-20T12:12:46;60.50;;;23.02;;
60241;SDS011;46103;52.076;113.488;2022-11-20T12:16:01;67.65;;;24.20;;
60241;SDS011;46103;52.076;113.488;2022-11-20T12:19:10;59.13;;;21.27;;
60241;SDS011;46103;52.076;113.488;2022-11-20T12:25:43;59.58;;;17.77;;
60241;SDS011;46103;52.076;113.488;2022-11-20T12:43:12;88.50;;;32.33;;
60241;SDS011;46103;52.076;113.488;2022-11-20T12:53:25;54.65;;;24.23;;
60241;SDS011;46103;52.076;113.488;2022-11-20T12:56:50;66.32;;;22.88;;
60241;SDS011;46103;52.076;113.488;2022-11-20T13:00:18;58.65;;;20.50;;
60241;SDS011;46103;52.076;113.488;2022-11-20T13:03:41;64.20;;;23.45;;
60241;SDS011;46103;52.076;113.488;2022-11-20T13:06:51;57.42;;;24.73;;
60241;SDS011;46103;52.076;113.488;2022-11-20T13:09:55;103.35;;;34.50;;
60241;SDS011;46103;52.076;113.488;2022-11-20T13:13:05;102.60;;;32.30;;
60241;SDS011;46103;52.076;113.488;2022-11-20T13:20:13;90.10;;;32.75;;
60241;SDS011;46103;52.076;113.488;2022-11-20T13:23:23;140.85;;;52.92;;
60241;SDS011;46103;52.076;113.488;2022-11-20T13:26:30;99.32;;;39.85;;
60241;SDS011;46103;52.076;113.488;2022-11-20T13:29:34;82.07;;;31.48;;
60241;SDS011;46103;52.076;113.488;2022-11-20T13:32:47;104.53;;;36.92;;
60241;SDS011;46103;52.076;113.488;2022-11-20T13:36:00;144.05;;;45.33;;
60241;SDS011;46103;52.076;113.488;2022-11-20T13:39:24;142.45;;;47.85;;
60241;SDS011;46103;52.076;113.488;2022-11-20T13:42:29;105.70;;;38.60;;
60241;SDS011;46103;52.076;113.488;2022-11-20T13:45:33;129.07;;;44.53;;
60241;SDS011;46103;52.076;113.488;2022-11-20T13:48:40;187.38;;;59.40;;
60241;SDS011;46103;52.076;113.488;2022-11-20T13:51:47;201.18;;;61.58;;
60241;SDS011;46103;52.076;113.488;2022-11-20T14:01:33;165.77;;;50.15;;
60241;SDS011;46103;52.076;113.488;2022-11-20T14:04:42;124.57;;;39.53;;
60241;SDS011;46103;52.076;113.488;2022-11-20T14:07:56;136.93;;;46.95;;
60241;SDS011;46103;52.076;113.488;2022-11-20T14:11:21;117.45;;;36.95;;
60241;SDS011;46103;52.076;113.488;2022-11-20T14:14:28;110.82;;;34.50;;
60241;SDS011;46103;52.076;113.488;2022-11-20T14:17:35;75.00;;;30.73;;
60241;SDS011;46103;52.076;113.488;2022-11-20T14:20:42;106.00;;;33.40;;
60241;SDS011;46103;52.076;113.488;2022-11-20T14:23:48;133.90;;;43.95;;
60241;SDS011;46103;52.076;113.488;2022-11-20T14:26:57;119.18;;;40.13;;
60241;SDS011;46103;52.076;113.488;2022-11-20T14:30:02;110.40;;;37.10;;
60241;SDS011;46103;52.076;113.488;2022-11-20T14:33:09;120.18;;;38.42;;
60241;SDS011;46103;52.076;113.488;2022-11-20T14:36:19;113.93;;;37.88;;
60241;SDS011;46103;52.076;113.488;2022-11-20T14:39:26;86.45;;;31.65;;
60241;SDS011;46103;52.076;113.488;2022-11-20T14:42:35;100.13;;;36.58;;
60241;SDS011;46103;52.076;113.488;2022-11-20T14:45:40;161.23;;;45.58;;
60241;SDS011;46103;52.076;113.488;2022-11-20T14:48:45;203.38;;;68.85;;
60241;SDS011;46103;52.076;113.488;2022-11-20T14:55:34;261.75;;;81.38;;
60241;SDS011;46103;52.076;113.488;2022-11-20T14:58:40;281.75;;;86.95;;
60241;SDS011;46103;52.076;113.488;2022-11-20T15:01:43;300.70;;;88.47;;
60241;SDS011;46103;52.076;113.488;2022-11-20T15:05:00;232.88;;;78.78;;
60241;SDS011;46103;52.076;113.488;2022-11-20T15:08:07;188.43;;;63.87;;
60241;SDS011;46103;52.076;113.488;2022-11-20T15:11:17;144.55;;;46.13;;
60241;SDS011;46103;52.076;113.488;2022-11-20T15:14:23;186.75;;;60.78;;
60241;SDS011;46103;52.076;113.488;2022-11-20T15:17:28;178.02;;;54.20;;
60241;SDS011;46103;52.076;113.488;2022-11-20T15:20:34;265.40;;;86.88;;
60241;SDS011;46103;52.076;113.488;2022-11-20T15:23:39;315.77;;;106.93;;
60241;SDS011;46103;52.076;113.488;2022-11-20T15:26:43;369.40;;;117.95;;
60241;SDS011;46103;52.076;113.488;2022-11-20T15:29:47;383.75;;;128.88;;
60241;SDS011;46103;52.076;113.488;2022-11-20T15:32:51;307.38;;;105.60;;
60241;SDS011;46103;52.076;113.488;2022-11-20T15:35:54;369.90;;;121.18;;
60241;SDS011;46103;52.076;113.488;2022-11-20T15:38:58;340.70;;;116.00;;
60241;SDS011;46103;52.076;113.488;2022-11-20T15:42:01;349.98;;;120.30;;
60241;SDS011;46103;52.076;113.488;2022-11-20T15:45:05;299.45;;;105.07;;
60241;SDS011;46103;52.076;113.488;2022-11-20T15:48:18;254.68;;;86.45;;
60241;SDS011;46103;52.076;113.488;2022-11-20T15:51:31;211.13;;;65.72;;
60241;SDS011;46103;52.076;113.488;2022-11-20T15:54:38;257.90;;;74.57;;
60241;SDS011;46103;52.076;113.488;2022-11-20T15:57:47;246.93;;;90.50;;
60241;SDS011;46103;52.076;113.488;2022-11-20T16:00:53;350.38;;;120.03;;
60241;SDS011;46103;52.076;113.488;2022-11-20T16:04:00;368.65;;;124.10;;
60241;SDS011;46103;52.076;113.488;2022-11-20T16:07:06;325.70;;;112.45;;
60241;SDS011;46103;52.076;113.488;2022-11-20T16:13:17;247.02;;;85.45;;
60241;SDS011;46103;52.076;113.488;2022-11-20T16:16:42;235.15;;;81.22;;
60241;SDS011;46103;52.076;113.488;2022-11-20T16:19:51;223.45;;;71.25;;
60241;SDS011;46103;52.076;113.488;2022-11-20T16:22:59;225.32;;;77.47;;
60241;SDS011;46103;52.076;113.488;2022-11-20T16:26:14;283.73;;;90.35;;
60241;SDS011;46103;52.076;113.488;2022-11-20T16:29:24;243.85;;;73.95;;
60241;SDS011;46103;52.076;113.488;2022-11-20T16:32:34;252.90;;;90.30;;
60241;SDS011;46103;52.076;113.488;2022-11-20T16:35:44;201.80;;;71.63;;
60241;SDS011;46103;52.076;113.488;2022-11-20T16:38:54;204.93;;;72.93;;
60241;SDS011;46103;52.076;113.488;2022-11-20T16:42:11;183.10;;;60.13;;
60241;SDS011;46103;52.076;113.488;2022-11-20T16:45:21;191.18;;;67.63;;
60241;SDS011;46103;52.076;113.488;2022-11-20T16:48:36;148.18;;;54.40;;
60241;SDS011;46103;52.076;113.488;2022-11-20T16:51:44;160.00;;;51.25;;
60241;SDS011;46103;52.076;113.488;2022-11-20T16:54:56;240.27;;;80.55;;
60241;SDS011;46103;52.076;113.488;2022-11-20T16:58:04;217.95;;;77.38;;
60241;SDS011;46103;52.076;113.488;2022-11-20T17:01:12;285.25;;;103.85;;
60241;SDS011;46103;52.076;113.488;2022-11-20T17:04:19;329.20;;;108.18;;
60241;SDS011;46103;52.076;113.488;2022-11-20T17:07:27;314.70;;;106.72;;
60241;SDS011;46103;52.076;113.488;2022-11-20T17:10:33;207.18;;;68.97;;
60241;SDS011;46103;52.076;113.488;2022-11-20T17:13:40;265.95;;;81.40;;
60241;SDS011;46103;52.076;113.488;2022-11-20T17:16:44;259.73;;;88.90;;
60241;SDS011;46103;52.076;113.488;2022-11-20T17:19:49;158.18;;;55.45;;
60241;SDS011;46103;52.076;113.488;2022-11-20T17:22:53;190.75;;;71.78;;
60241;SDS011;46103;52.076;113.488;2022-11-20T17:29:14;237.95;;;78.13;;
60241;SDS011;46103;52.076;113.488;2022-11-20T17:32:22;242.20;;;71.25;;
60241;SDS011;46103;52.076;113.488;2022-11-20T17:35:30;282.05;;;90.10;;
60241;SDS011;46103;52.076;113.488;2022-11-20T17:38:46;234.95;;;89.47;;
60241;SDS011;46103;52.076;113.488;2022-11-20T17:41:56;240.35;;;86.28;;
60241;SDS011;46103;52.076;113.488;2022-11-20T17:45:24;267.27;;;89.05;;
60241;SDS011;46103;52.076;113.488;2022-11-20T17:48:33;211.50;;;73.38;;
60241;SDS011;46103;52.076;113.488;2022-11-20T17:51:42;272.33;;;78.53;;
60241;SDS011;46103;52.076;113.488;2022-11-20T17:54:51;216.88;;;70.47;;
60241;SDS011;46103;52.076;113.488;2022-11-20T17:58:05;102.95;;;39.50;;
60241;SDS011;46103;52.076;113.488;2022-11-20T18:01:15;194.57;;;55.95;;
60241;SDS011;46103;52.076;113.488;2022-11-20T18:04:25;162.45;;;57.47;;
60241;SDS011;46103;52.076;113.488;2022-11-20T18:07:38;170.23;;;58.75;;
60241;SDS011;46103;52.076;113.488;2022-11-20T18:10:46;157.95;;;62.80;;
60241;SDS011;46103;52.076;113.488;2022-11-20T18:13:56;151.05;;;54.47;;
60241;SDS011;46103;52.076;113.488;2022-11-20T18:17:22;157.13;;;48.83;;
60241;SDS011;46103;52.076;113.488;2022-11-20T18:20:29;140.65;;;49.28;;
60241;SDS011;46103;52.076;113.488;2022-11-20T18:23:42;163.65;;;58.42;;
60241;SDS011;46103;52.076;113.488;2022-11-20T18:26:51;194.05;;;64.03;;
60241;SDS011;46103;52.076;113.488;2022-11-20T18:30:00;146.27;;;58.13;;
60241;SDS011;46103;52.076;113.488;2022-11-20T18:33:12;145.75;;;48.13;;
60241;SDS011;46103;52.076;113.488;2022-11-20T18:36:31;113.97;;;39.92;;
60241;SDS011;46103;52.076;113.488;2022-11-20T18:39:40;141.95;;;46.08;;
60241;SDS011;46103;52.076;113.488;2022-11-20T18:42:48;107.63;;;44.65;;
60241;SDS011;46103;52.076;113.488;2022-11-20T18:46:13;128.85;;;46.22;;
60241;SDS011;46103;52.076;113.488;2022-11-20T18:49:26;120.53;;;41.72;;
60241;SDS011;46103;52.076;113.488;2022-11-20T18:52:40;130.57;;;47.25;;
60241;SDS011;46103;52.076;113.488;2022-11-20T18:55:52;138.60;;;47.72;;
60241;SDS011;46103;52.076;113.488;2022-11-20T18:59:00;166.40;;;56.60;;
60241;SDS011;46103;52.076;113.488;2022-11-20T19:02:12;144.20;;;49.78;;
60241;SDS011;46103;52.076;113.488;2022-11-20T19:05:26;105.45;;;36.92;;
60241;SDS011;46103;52.076;113.488;2022-11-20T19:08:34;89.00;;;32.30;;
60241;SDS011;46103;52.076;113.488;2022-11-20T19:11:42;113.10;;;40.88;;
60241;SDS011;46103;52.076;113.488;2022-11-20T19:14:51;171.98;;;56.42;;
60241;SDS011;46103;52.076;113.488;2022-11-20T19:18:00;177.70;;;54.33;;
60241;SDS011;46103;52.076;113.488;2022-11-20T19:21:15;102.22;;;41.38;;
60241;SDS011;46103;52.076;113.488;2022-11-20T19:24:26;139.35;;;42.25;;
60241;SDS011;46103;52.076;113.488;2022-11-20T19:27:37;126.13;;;44.42;;